• Join FlightAware (Why Join?)
  • Login
  • US Flag 
 
04:12AM EST


 

Airport Tracker/Info


-or-


 

Live Flight TrackerFlight Track Log ✈ AAY840 ✈ 14-Aug-2014 ✈ KPIE - KTRI

Flight Track Log - Related Links

Times and Time Zones

All times are in EDT time to prevent confusion due to time zone crossing. See the AAY840 flight status page for this flight to view local times or setup timezone preferences in your user account.

Time Position Orientation Groundspeed Altitude Reporting Facility
EDT Latitude Longitude Course Direction KTS MPH feet Rate Location/Type
08:48AM 27.9000 -82.6833 180° South 152 175 700  Level Tampa TRACON
08:49AM 27.8500 -82.6833 180° South 200 230 2,000 2,100 Climbing Tampa TRACON
08:50AM 27.8000 -82.7000 196° South 239 275 4,700 2,460 Climbing Tampa TRACON
08:51AM 27.8500 -82.7500 319° Northwest 258 297 7,000 2,340 Climbing Tampa TRACON
08:53AM 27.9692 -82.7572 357° North 257 296 11,300 1,980 Climbing Miami Center
08:54AM 28.0550 -82.7622 357° North 301 346 12,600 1,380 Climbing Miami Center
08:55AM 28.1581 -82.7661 358° North 356 410 14,200 1,560 Climbing Miami Center
08:56AM 28.2628 -82.7558 North 366 421 15,800 1,320 Climbing Miami Center
08:57AM 28.3775 -82.7469 North 396 456 17,000 1,260 Climbing Miami Center
08:58AM 28.4975 -82.7469 360° North 422 486 18,500 1,500 Climbing Miami Center
08:59AM 28.6464 -82.7389 North 442 509 20,200 1,560 Climbing Miami Center
09:00AM 28.7706 -82.7267 North 444 511 21,700 1,260 Climbing Miami Center
09:01AM 28.8950 -82.7114 North 448 516 22,800 600 Climbing Miami Center
09:02AM 29.0239 -82.6997 North 460 529 23,000 60 Climbing Miami Center
09:03AM 29.1511 -82.6881 North 462 532 23,000 180 Level Miami Center
09:04AM 29.2786 -82.6897 359° North 461 531 23,400 720 Climbing Miami Center
09:05AM 29.4072 -82.6931 359° North 461 531 24,500 960 Climbing Miami Center
09:06AM 29.5636 -82.6711 North 473 544 25,400 900 Climbing Miami Center
09:07AM 29.6961 -82.6544 North 481 554 26,400 1,140 Climbing Miami Center
09:08AM 29.8286 -82.6372 North 484 557 27,800 1,140 Climbing Miami Center
09:09AM 29.9844 -82.6169 North 484 557 28,900 1,020 Climbing Jacksonville Center
09:10AM 30.1056 -82.6044 North 479 551 30,000 1,140 Climbing Jacksonville Center
09:11AM 30.2517 -82.5872 North 479 551 31,200 1,200 Climbing Jacksonville Center
09:12AM 30.3850 -82.5700 North 479 551 32,500 1,140 Climbing Jacksonville Center
09:13AM 30.5167 -82.5550 North 479 551 33,600 1,080 Climbing Jacksonville Center
09:14AM 30.6481 -82.5472 North 479 551 34,700 900 Climbing Jacksonville Center
09:15AM 30.7817 -82.5444 North 474 545 35,500 900 Climbing Jacksonville Center
09:16AM 30.9111 -82.5392 North 474 545 36,500 660 Climbing Jacksonville Center
09:17AM 31.0428 -82.5336 North 474 545 36,900 240 Climbing Jacksonville Center
09:18AM 31.1722 -82.5258 North 474 545 37,000  Climbing Jacksonville Center
09:19AM 31.3036 -82.5206 North 469 540 36,900  Descending Jacksonville Center
09:20AM 31.4311 -82.5103 North 469 540 37,000  Climbing Jacksonville Center
09:21AM 31.5625 -82.5050 North 469 540 37,000  Level Jacksonville Center
09:22AM 31.6867 -82.4842 North 478 550 37,000  Level Atlanta Center
09:23AM 31.8181 -82.4650 North 478 550 37,000  Level Atlanta Center
09:24AM 31.9492 -82.4453 North 472 543 37,000  Level Atlanta Center
09:25AM 32.0783 -82.4236 North 472 543 37,000  Level Atlanta Center
09:26AM 32.2094 -82.4039 North 472 543 37,000  Level Atlanta Center
09:27AM 32.3367 -82.3844 North 467 537 37,000  Level Atlanta Center
09:28AM 32.4678 -82.3622 North 461 531 37,000 -60 Level Atlanta Center
09:29AM 32.5969 -82.3425 North 461 531 36,900 -480 Descending Atlanta Center
09:30AM 32.7281 -82.3228 North 461 531 36,100 -900 Descending Atlanta Center
09:31AM 32.8572 -82.3006 North 466 536 35,100 -960 Descending Atlanta Center
09:32AM 32.9886 -82.2806 North 466 536 34,200 -960 Descending Atlanta Center
09:33AM 33.1175 -82.2581 North 466 536 33,200 -600 Descending Atlanta Center
09:34AM 33.2592 -82.2328 North 466 536 33,000 -120 Descending Atlanta Center
09:35AM 33.3883 -82.2153 North 466 536 33,000  Level Atlanta Center
09:36AM 33.5153 -82.1925 North 466 536 33,000 -60 Level Atlanta Center
09:37AM 33.6422 -82.1697 North 466 536 32,900  Descending Atlanta Center
09:38AM 33.7692 -82.1497 North 461 531 33,000  Climbing Atlanta Center
09:39AM 33.8961 -82.1267 North 461 531 33,000  Level Atlanta Center
09:40AM 34.0253 -82.1064 North 461 531 33,000  Level Atlanta Center
09:41AM 34.1397 -82.0861 North 466 536 33,000  Level Atlanta Center
09:42AM 34.2647 -82.0633 North 461 531 33,000  Level Atlanta Center
09:43AM 34.3936 -82.0425 North 461 531 33,000 -360 Level Atlanta Center
09:44AM 34.5186 -82.0194 North 461 531 32,300 -540 Descending Atlanta Center
09:45AM 34.6433 -81.9961 North 461 531 32,000 -480 Descending Atlanta Center
09:46AM 34.7703 -81.9728 North 461 531 31,400 -1,380 Descending Atlanta Center
09:47AM 34.8908 -81.9497 North 455 524 29,300 -2,400 Descending Atlanta Center
09:48AM 35.0222 -81.9361 North 443 510 26,600 -2,400 Descending Atlanta Center
09:49AM 35.1308 -81.9461 356° North 417 480 24,500 -1,320 Descending Atlanta Center
09:50AM 35.2397 -81.9611 354° North 400 460 24,000 -1,080 Descending Atlanta Center
09:51AM 35.3464 -81.9764 353° North 390 449 22,400 -1,980 Descending Atlanta Center
09:52AM 35.4467 -81.9942 352° North 379 436 20,100 -2,280 Descending Atlanta Center
09:53AM 35.5411 -82.0300 343° North 355 409 17,900 -2,220 Descending Atlanta Center
09:54AM 35.6314 -82.0664 342° North 350 403 15,700 -2,100 Descending Atlanta Center
09:55AM 35.7175 -82.1000 342° North 339 390 13,700 -2,160 Descending Atlanta Center
09:56AM 35.8014 -82.1339 342° North 326 375 11,400 -1,380 Descending Atlanta Center
09:57AM 35.8750 -82.1628 342° North 316 364 11,000 -240 Descending Atlanta Center
09:58AM 35.9547 -82.1944 342° North 303 349 11,000  Level Atlanta Center
09:59AM 36.0283 -82.2286 339° North 298 343 11,000 -300 Level Atlanta Center
10:00AM 36.1100 -82.2603 343° North 287 330 10,400 -1,020 Descending Atlanta Center
10:01AM 36.1853 -82.2792 349° North 282 325 9,000 -1,200 Descending Atlanta Center
10:02AM 36.2603 -82.2647 North 276 318 8,000 -1,200 Descending Atlanta Center
10:03AM 36.3311 -82.2683 358° North 265 305 6,700 -1,500 Descending Atlanta Center
10:04AM 36.4044 -82.2872 348° North 265 305 5,100 -1,020 Descending Atlanta Center
10:05AM 36.4694 -82.2986 352° North 248 285 4,700 -420 Descending Atlanta Center
10:07AM 36.4667 -82.4000 North  Level FlightAware Approximate
10:14AM 36.4752 -82.4074 North  Level Estimated
10:15AM 36.4752 -82.4074 North  Level Estimated
10:16AM 36.4752 -82.4074 North  Level Estimated
10:17AM 36.4752 -82.4074 North  Level Estimated